createdAt,value
2018-07-05T00:02:22.872Z,45.90
2018-07-05T00:05:09.270Z,45.80
2018-07-05T00:07:55.592Z,45.90
2018-07-05T00:10:42.000Z,45.90
2018-07-05T00:13:28.596Z,45.90
2018-07-05T00:16:15.080Z,46.00
2018-07-05T00:19:01.498Z,46.00
2018-07-05T00:21:48.054Z,45.90
2018-07-05T00:24:34.536Z,45.90
2018-07-05T00:27:20.911Z,45.90
2018-07-05T00:30:07.183Z,45.90
2018-07-05T00:32:53.904Z,45.70
2018-07-05T00:35:40.527Z,45.30
2018-07-05T00:38:26.967Z,45.30
2018-07-05T00:41:13.434Z,45.80
2018-07-05T00:44:00.052Z,45.80
2018-07-05T00:46:46.471Z,45.80
2018-07-05T00:49:32.824Z,45.80
2018-07-05T00:52:19.203Z,45.80
2018-07-05T00:55:05.819Z,45.80
2018-07-05T01:00:33.098Z,45.80
2018-07-05T01:03:19.719Z,45.90
2018-07-05T01:06:06.243Z,45.80
2018-07-05T01:08:52.635Z,45.80
2018-07-05T01:11:39.216Z,45.40
2018-07-05T01:14:25.893Z,45.90
2018-07-05T01:17:12.305Z,45.40
2018-07-05T01:19:58.712Z,45.90
2018-07-05T01:22:44.976Z,45.90
2018-07-05T01:25:31.349Z,45.90
2018-07-05T01:28:17.999Z,45.90
2018-07-05T01:31:04.512Z,45.90
2018-07-05T01:33:50.932Z,45.90
2018-07-05T01:36:37.235Z,45.90
2018-07-05T01:39:23.542Z,45.90
2018-07-05T01:42:09.952Z,45.90
2018-07-05T01:44:56.354Z,45.90
2018-07-05T01:47:42.766Z,45.90
2018-07-05T01:50:29.079Z,45.90
2018-07-05T01:53:15.391Z,46.10
2018-07-05T01:56:01.847Z,45.90
2018-07-05T01:58:48.192Z,45.80
2018-07-05T02:01:34.663Z,45.80
2018-07-05T02:04:21.010Z,45.80
2018-07-05T02:07:07.580Z,45.80
2018-07-05T02:09:53.905Z,45.80
2018-07-05T02:12:40.427Z,45.70
2018-07-05T02:15:27.069Z,45.80
2018-07-05T02:18:13.454Z,45.70
2018-07-05T02:20:59.803Z,45.80
2018-07-05T02:23:46.100Z,45.80
2018-07-05T02:29:12.907Z,45.80
2018-07-05T02:31:59.293Z,45.80
2018-07-05T02:34:45.616Z,45.80
2018-07-05T02:37:37.277Z,45.80
2018-07-05T02:40:23.734Z,45.80
2018-07-05T02:43:10.107Z,45.80
2018-07-05T02:45:56.711Z,45.80
2018-07-05T02:48:43.112Z,45.60
2018-07-05T02:51:29.708Z,45.70
2018-07-05T02:54:16.282Z,45.70
2018-07-05T02:57:02.599Z,45.70
2018-07-05T02:59:49.151Z,45.70
2018-07-05T03:02:35.461Z,45.70
2018-07-05T03:05:21.860Z,45.60
2018-07-05T03:08:08.288Z,45.60
2018-07-05T03:10:54.643Z,45.60
2018-07-05T03:13:41.068Z,45.60
2018-07-05T03:16:27.360Z,45.60
2018-07-05T03:19:13.771Z,45.60
2018-07-05T03:22:00.935Z,45.60
2018-07-05T03:24:47.258Z,45.10
2018-07-05T03:27:33.566Z,45.70
2018-07-05T03:30:20.037Z,45.10
2018-07-05T03:33:06.669Z,45.70
2018-07-05T03:35:53.027Z,45.70
2018-07-05T03:41:19.931Z,45.70
2018-07-05T03:44:06.492Z,45.70
2018-07-05T03:46:52.899Z,45.70
2018-07-05T03:49:39.164Z,45.60
2018-07-05T03:52:25.740Z,45.20
2018-07-05T03:55:12.177Z,45.60
2018-07-05T03:57:58.470Z,45.70
2018-07-05T04:00:44.987Z,45.60
2018-07-05T04:03:31.306Z,45.70
2018-07-05T04:06:17.771Z,45.70
2018-07-05T04:09:04.563Z,45.60
2018-07-05T04:11:51.207Z,45.70
2018-07-05T04:14:37.916Z,45.70
2018-07-05T04:17:24.221Z,45.70
2018-07-05T04:20:10.827Z,45.80
2018-07-05T04:22:57.160Z,45.80
2018-07-05T04:25:43.566Z,46.50
2018-07-05T04:28:29.927Z,46.80
2018-07-05T04:31:16.243Z,47.00
2018-07-05T04:34:02.642Z,47.20
2018-07-05T04:36:49.148Z,47.30
2018-07-05T04:39:35.873Z,47.90
2018-07-05T04:42:22.291Z,48.10
2018-07-05T04:45:10.015Z,47.90
2018-07-05T04:47:59.393Z,47.80
2018-07-05T04:50:46.554Z,48.00
2018-07-05T04:53:33.104Z,48.20
2018-07-05T04:56:19.448Z,48.30
2018-07-05T04:59:07.769Z,48.40
2018-07-05T05:01:58.833Z,48.50
2018-07-05T05:04:45.704Z,48.70
2018-07-05T05:07:32.334Z,48.60
2018-07-05T05:10:21.900Z,48.50
2018-07-05T05:13:10.927Z,48.60
2018-07-05T05:15:58.032Z,49.00
2018-07-05T05:18:44.596Z,49.40
2018-07-05T05:21:30.965Z,49.60
2018-07-05T05:24:17.616Z,49.70
2018-07-05T05:27:04.067Z,50.00
2018-07-05T05:29:50.461Z,50.10
2018-07-05T05:32:36.787Z,50.30
2018-07-05T05:35:23.675Z,50.10
2018-07-05T05:38:10.220Z,50.20
2018-07-05T05:40:56.672Z,50.90
2018-07-05T05:46:23.580Z,51.40
2018-07-05T05:49:09.955Z,51.60
2018-07-05T05:51:56.319Z,51.60
2018-07-05T05:54:42.624Z,51.60
2018-07-05T05:57:28.926Z,51.20
2018-07-05T06:00:15.439Z,51.00
2018-07-05T06:03:01.877Z,50.30
2018-07-05T06:05:48.164Z,50.60
2018-07-05T06:08:34.580Z,50.40
2018-07-05T06:11:21.070Z,50.50
2018-07-05T06:14:07.680Z,50.40
2018-07-05T06:16:54.181Z,50.20
2018-07-05T06:19:40.676Z,50.30
2018-07-05T06:22:27.084Z,50.40
2018-07-05T06:25:13.449Z,50.90
2018-07-05T06:27:59.834Z,50.90
2018-07-05T06:30:46.260Z,50.70
2018-07-05T06:33:32.704Z,50.50
2018-07-05T06:36:19.347Z,50.40
2018-07-05T06:39:06.996Z,50.30
2018-07-05T06:41:53.402Z,50.30
2018-07-05T06:44:39.817Z,50.10
2018-07-05T06:47:26.389Z,50.00
2018-07-05T06:50:12.690Z,50.00
2018-07-05T06:52:59.088Z,49.90
2018-07-05T06:55:45.463Z,49.80
2018-07-05T06:58:31.929Z,49.80
2018-07-05T07:01:18.551Z,49.70
2018-07-05T07:04:04.908Z,49.60
2018-07-05T07:06:51.309Z,49.60
2018-07-05T07:09:37.630Z,49.50
2018-07-05T07:12:24.179Z,49.50
2018-07-05T07:15:10.597Z,49.40
2018-07-05T07:17:56.979Z,49.80
2018-07-05T07:20:43.399Z,49.40
2018-07-05T07:23:29.906Z,49.40
2018-07-05T07:26:16.416Z,49.30
2018-07-05T07:29:02.763Z,49.30
2018-07-05T07:34:29.811Z,49.10
2018-07-05T07:37:16.060Z,49.00
2018-07-05T07:40:02.405Z,48.90
2018-07-05T07:42:36.613Z,48.90
2018-07-05T07:45:04.504Z,48.90
2018-07-05T07:47:32.405Z,48.80
2018-07-05T07:52:28.686Z,48.70
2018-07-05T07:54:56.624Z,48.70
2018-07-05T07:57:24.802Z,48.70
2018-07-05T07:59:52.716Z,48.70
2018-07-05T08:02:20.609Z,48.60
2018-07-05T08:04:48.513Z,48.60
2018-07-05T08:07:16.444Z,48.60
2018-07-05T08:09:44.369Z,48.50
2018-07-05T08:12:12.248Z,48.50
2018-07-05T08:14:40.251Z,48.00
2018-07-05T08:17:08.127Z,48.50
2018-07-05T08:19:36.187Z,48.50
2018-07-05T08:22:04.083Z,48.50
2018-07-05T08:24:32.108Z,48.40
2018-07-05T08:27:00.099Z,48.40
2018-07-05T08:29:27.991Z,48.40
2018-07-05T08:31:55.922Z,48.40
2018-07-05T08:36:51.989Z,47.80
2018-07-05T08:39:20.268Z,47.80
2018-07-05T08:41:48.756Z,47.80
2018-07-05T08:44:16.680Z,48.30
2018-07-05T08:46:44.575Z,48.30
2018-07-05T08:49:12.497Z,47.80
2018-07-05T08:51:40.503Z,48.30
2018-07-05T08:54:08.567Z,48.30
2018-07-05T08:56:36.443Z,48.20
2018-07-05T08:59:04.343Z,48.20
2018-07-05T09:01:32.247Z,48.30
2018-07-05T09:04:00.380Z,48.20
2018-07-05T09:06:28.340Z,48.20
2018-07-05T09:08:56.246Z,48.20
2018-07-05T09:11:24.136Z,48.20
2018-07-05T09:13:52.028Z,48.20
2018-07-05T09:16:20.005Z,48.20
2018-07-05T09:21:46.239Z,48.10
2018-07-05T09:24:14.154Z,48.20
2018-07-05T09:26:42.336Z,48.20
2018-07-05T09:29:10.231Z,48.20
2018-07-05T09:31:38.124Z,48.20
2018-07-05T09:34:06.032Z,48.20
2018-07-05T09:36:33.924Z,48.80
2018-07-05T09:39:01.860Z,48.20
2018-07-05T09:41:29.751Z,48.20
2018-07-05T09:46:25.699Z,48.20
2018-07-05T09:48:53.693Z,48.20
2018-07-05T09:51:21.600Z,48.20
2018-07-05T09:56:17.828Z,48.20
2018-07-05T09:58:45.807Z,48.20
2018-07-05T10:01:13.825Z,48.20
2018-07-05T10:03:42.006Z,48.20
2018-07-05T10:06:10.046Z,47.60
2018-07-05T10:08:37.928Z,48.10
2018-07-05T10:11:05.847Z,48.10
2018-07-05T10:13:34.287Z,47.90
2018-07-05T10:16:02.332Z,48.10
2018-07-05T10:18:30.218Z,48.00
2018-07-05T10:20:58.224Z,48.00
2018-07-05T10:23:26.175Z,47.90
2018-07-05T10:25:54.172Z,48.00
2018-07-05T10:28:22.057Z,47.90
2018-07-05T10:31:02.200Z,47.90
2018-07-05T10:33:44.928Z,47.80
2018-07-05T10:36:12.858Z,47.80
2018-07-05T10:38:40.762Z,47.30
2018-07-05T10:41:20.991Z,47.30
2018-07-05T10:44:07.308Z,47.80
2018-07-05T10:46:53.735Z,47.80
2018-07-05T10:49:40.171Z,47.80
2018-07-05T10:52:26.584Z,47.80
2018-07-05T10:55:13.244Z,47.80
2018-07-05T10:57:59.545Z,47.80
2018-07-05T11:00:45.864Z,47.80
2018-07-05T11:03:32.198Z,47.80
2018-07-05T11:06:18.624Z,47.80
2018-07-05T11:11:45.701Z,48.00
2018-07-05T11:14:33.656Z,48.00
2018-07-05T11:17:20.132Z,48.00
2018-07-05T11:20:06.491Z,48.10
2018-07-05T11:22:52.863Z,48.10
2018-07-05T11:25:39.351Z,47.60
2018-07-05T11:28:25.867Z,48.10
2018-07-05T11:31:12.223Z,47.60
2018-07-05T11:33:58.552Z,47.60
2018-07-05T11:36:45.073Z,48.10
2018-07-05T11:39:31.700Z,48.10
2018-07-05T11:42:18.068Z,48.30
2018-07-05T11:45:04.517Z,48.30
2018-07-05T11:47:51.061Z,48.80
2018-07-05T11:50:37.944Z,48.70
2018-07-05T11:53:24.451Z,52.00
2018-07-05T11:56:10.817Z,50.70
2018-07-05T11:58:57.434Z,50.90
2018-07-05T12:01:43.887Z,51.00
2018-07-05T12:04:30.429Z,50.80
2018-07-05T12:07:16.824Z,50.40
2018-07-05T12:10:03.240Z,50.50
2018-07-05T12:12:49.600Z,50.50
2018-07-05T12:15:35.944Z,50.60
2018-07-05T12:18:22.411Z,50.40
2018-07-05T12:21:08.807Z,50.30
2018-07-05T12:23:55.403Z,50.20
2018-07-05T12:26:41.660Z,50.00
2018-07-05T12:29:28.146Z,50.00
2018-07-05T12:32:14.547Z,49.30
2018-07-05T12:35:01.068Z,49.80
2018-07-05T12:37:47.332Z,49.70
2018-07-05T12:40:33.692Z,49.60
2018-07-05T12:43:20.088Z,49.50
2018-07-05T12:46:06.484Z,49.50
2018-07-05T12:48:53.009Z,48.80
2018-07-05T12:51:39.344Z,49.30
2018-07-05T12:54:25.707Z,49.10
2018-07-05T12:57:12.147Z,49.00
2018-07-05T12:59:58.808Z,48.20
2018-07-05T13:02:45.228Z,48.70
2018-07-05T13:05:31.691Z,48.10
2018-07-05T13:08:18.064Z,48.60
2018-07-05T13:13:45.212Z,48.60
2018-07-05T13:16:31.613Z,48.60
2018-07-05T13:19:18.089Z,48.70
2018-07-05T13:22:04.527Z,48.70
2018-07-05T13:24:50.915Z,48.30
2018-07-05T13:27:37.315Z,48.80
2018-07-05T13:30:23.796Z,48.90
2018-07-05T13:33:10.356Z,48.90
2018-07-05T13:38:37.343Z,49.80
2018-07-05T13:41:25.427Z,48.50
2018-07-05T13:44:12.011Z,48.60
2018-07-05T13:46:58.468Z,49.20
2018-07-05T13:49:44.964Z,49.20
2018-07-05T13:52:31.349Z,49.20
2018-07-05T13:55:17.828Z,49.40
2018-07-05T13:58:04.310Z,49.30
2018-07-05T14:00:50.701Z,49.40
2018-07-05T14:03:37.144Z,49.50
2018-07-05T14:06:23.728Z,49.40
2018-07-05T14:09:10.176Z,49.40
2018-07-05T14:11:57.128Z,49.50
2018-07-05T14:14:44.218Z,49.60
2018-07-05T14:17:30.657Z,49.50
2018-07-05T14:20:17.015Z,49.90
2018-07-05T14:23:03.691Z,49.80
2018-07-05T14:25:50.227Z,49.70
2018-07-05T14:28:36.580Z,49.60
2018-07-05T14:31:22.992Z,49.80
2018-07-05T14:34:09.314Z,50.00
2018-07-05T14:39:36.274Z,53.30
2018-07-05T14:42:22.719Z,52.50
2018-07-05T14:47:49.511Z,56.00
2018-07-05T14:50:35.947Z,56.70
2018-07-05T14:53:22.398Z,53.80
2018-07-05T14:56:08.976Z,54.50
2018-07-05T14:58:55.519Z,54.40
2018-07-05T15:01:41.875Z,55.40
2018-07-05T15:04:28.263Z,57.50
2018-07-05T15:07:14.867Z,59.40
2018-07-05T15:10:01.180Z,58.50
2018-07-05T15:12:47.571Z,60.80
2018-07-05T15:15:34.120Z,57.60
2018-07-05T15:18:20.545Z,60.10
2018-07-05T15:21:06.876Z,61.10
2018-07-05T15:23:53.529Z,58.50
2018-07-05T15:26:39.972Z,59.10
2018-07-05T15:29:26.532Z,55.50
2018-07-05T15:32:12.877Z,55.70
2018-07-05T15:34:59.159Z,54.30
2018-07-05T15:37:45.603Z,53.60
2018-07-05T15:40:31.891Z,54.10
2018-07-05T15:43:18.336Z,54.10
2018-07-05T15:46:04.631Z,54.00
2018-07-05T15:48:51.023Z,53.90
2018-07-05T15:51:37.344Z,53.70
2018-07-05T15:54:26.820Z,53.70
2018-07-05T15:57:14.275Z,54.30
2018-07-05T16:00:01.508Z,54.00
2018-07-05T16:02:51.311Z,53.70
2018-07-05T16:05:37.958Z,53.40
2018-07-05T16:08:25.950Z,53.20
2018-07-05T16:11:21.116Z,53.00
2018-07-05T16:14:10.045Z,52.30
2018-07-05T16:16:57.404Z,52.80
2018-07-05T16:19:44.019Z,52.70
2018-07-05T16:22:31.281Z,52.70
2018-07-05T16:25:20.949Z,52.20
2018-07-05T16:28:09.183Z,52.70
2018-07-05T16:30:57.555Z,52.80
2018-07-05T16:33:44.113Z,52.80
2018-07-05T16:36:30.642Z,52.80
2018-07-05T16:39:17.058Z,52.90
2018-07-05T16:42:03.480Z,53.00
2018-07-05T16:44:49.849Z,53.00
2018-07-05T16:47:36.414Z,52.90
2018-07-05T16:50:22.832Z,53.00
2018-07-05T16:53:09.200Z,53.30
2018-07-05T16:55:55.796Z,53.40
2018-07-05T16:58:42.218Z,53.30
2018-07-05T17:01:28.565Z,53.40
2018-07-05T17:04:15.591Z,53.60
2018-07-05T17:07:03.443Z,53.20
2018-07-05T17:09:49.808Z,53.70
2018-07-05T17:12:36.600Z,54.10
2018-07-05T17:15:22.933Z,54.20
2018-07-05T17:18:09.533Z,54.40
2018-07-05T17:20:55.899Z,54.40
2018-07-05T17:23:42.417Z,54.70
2018-07-05T17:26:29.024Z,55.00
2018-07-05T17:29:15.406Z,54.90
2018-07-05T17:32:01.704Z,54.90
2018-07-05T17:34:48.035Z,55.00
2018-07-05T17:37:34.564Z,54.80
2018-07-05T17:40:21.000Z,54.80
2018-07-05T17:43:07.420Z,54.30
2018-07-05T17:45:53.773Z,54.40
2018-07-05T17:48:40.367Z,53.20
2018-07-05T17:51:26.946Z,53.70
2018-07-05T17:54:13.452Z,53.80
2018-07-05T17:57:00.311Z,53.30
2018-07-05T17:59:46.663Z,53.50
2018-07-05T18:02:33.060Z,53.50
2018-07-05T18:05:19.631Z,54.30
2018-07-05T18:08:06.060Z,54.30
2018-07-05T18:10:52.472Z,54.90
2018-07-05T18:13:38.856Z,54.60
2018-07-05T18:16:25.274Z,54.50
2018-07-05T18:19:11.794Z,54.20
2018-07-05T18:21:58.169Z,54.70
2018-07-05T18:24:44.619Z,55.00
2018-07-05T18:27:31.087Z,55.60
2018-07-05T18:30:17.460Z,56.50
2018-07-05T18:33:04.343Z,56.00
2018-07-05T18:35:50.708Z,56.60
2018-07-05T18:38:37.108Z,57.10
2018-07-05T18:41:23.432Z,56.80
2018-07-05T18:44:09.775Z,56.40
2018-07-05T18:46:58.702Z,56.80
2018-07-05T18:49:45.735Z,57.40
2018-07-05T18:52:32.196Z,57.50
2018-07-05T18:55:18.571Z,57.50
2018-07-05T18:58:04.997Z,57.50
2018-07-05T19:00:51.507Z,57.70
2018-07-05T19:03:37.869Z,57.80
2018-07-05T19:06:24.633Z,57.80
2018-07-05T19:09:11.532Z,58.00
2018-07-05T19:11:57.934Z,57.60
2018-07-05T19:14:45.204Z,58.10
2018-07-05T19:17:31.718Z,57.60
2018-07-05T19:20:18.114Z,57.50
2018-07-05T19:23:04.506Z,57.50
2018-07-05T19:25:51.070Z,57.70
2018-07-05T19:28:37.496Z,57.80
2018-07-05T19:31:25.074Z,57.80
2018-07-05T19:34:11.635Z,57.60
2018-07-05T19:36:58.235Z,57.10
2018-07-05T19:39:44.711Z,57.30
2018-07-05T19:42:31.269Z,56.80
2018-07-05T19:45:17.624Z,56.50
2018-07-05T19:48:04.067Z,55.70
2018-07-05T19:50:50.503Z,55.30
2018-07-05T19:53:37.067Z,55.80
2018-07-05T19:56:23.502Z,55.60
2018-07-05T19:59:09.856Z,55.50
2018-07-05T20:01:59.237Z,55.30
2018-07-05T20:04:45.800Z,55.10
2018-07-05T20:07:32.347Z,54.90
2018-07-05T20:10:18.955Z,54.20
2018-07-05T20:13:05.520Z,53.80
2018-07-05T20:15:52.219Z,53.50
2018-07-05T20:18:38.773Z,53.60
2018-07-05T20:21:25.377Z,53.40
2018-07-05T20:24:11.912Z,53.10
2018-07-05T20:26:58.479Z,53.20
2018-07-05T20:29:44.947Z,53.00
2018-07-05T20:32:31.495Z,53.20
2018-07-05T20:35:17.879Z,53.20
2018-07-05T20:38:04.240Z,52.50
2018-07-05T20:40:50.702Z,53.00
2018-07-05T20:43:37.193Z,52.90
2018-07-05T20:46:23.584Z,52.80
2018-07-05T20:49:10.310Z,52.70
2018-07-05T20:51:57.538Z,52.70
2018-07-05T20:54:44.000Z,52.60
2018-07-05T20:57:30.615Z,52.40
2018-07-05T21:00:17.012Z,52.50
2018-07-05T21:03:03.375Z,52.50
2018-07-05T21:05:49.779Z,52.40
2018-07-05T21:08:36.262Z,52.30
2018-07-05T21:11:23.625Z,52.80
2018-07-05T21:14:10.184Z,52.10
2018-07-05T21:16:56.539Z,52.10
2018-07-05T21:19:42.926Z,52.10
2018-07-05T21:22:29.426Z,52.00
2018-07-05T21:25:15.940Z,52.10
2018-07-05T21:28:02.350Z,52.10
2018-07-05T21:30:48.772Z,52.10
2018-07-05T21:33:35.113Z,52.00
2018-07-05T21:36:21.544Z,52.00
2018-07-05T21:39:07.932Z,52.70
2018-07-05T21:41:54.387Z,52.60
2018-07-05T21:44:40.825Z,52.70
2018-07-05T21:47:27.240Z,53.30
2018-07-05T21:50:14.126Z,52.90
2018-07-05T21:53:00.698Z,53.50
2018-07-05T21:55:47.166Z,53.50
2018-07-05T21:58:33.866Z,53.50
2018-07-05T22:01:20.396Z,53.60
2018-07-05T22:04:07.064Z,53.90
2018-07-05T22:06:53.468Z,53.90
2018-07-05T22:09:39.863Z,54.20
2018-07-05T22:12:26.212Z,54.30
2018-07-05T22:15:12.631Z,54.40
2018-07-05T22:18:04.306Z,54.50
2018-07-05T22:20:56.163Z,54.60
2018-07-05T22:23:47.927Z,54.70
2018-07-05T22:26:39.758Z,54.90
2018-07-05T22:29:31.612Z,54.80
2018-07-05T22:32:18.123Z,54.90
2018-07-05T22:35:04.419Z,54.50
2018-07-05T22:37:50.735Z,55.00
2018-07-05T22:40:37.454Z,55.00
2018-07-05T22:43:23.856Z,55.00
2018-07-05T22:46:10.153Z,55.20
2018-07-05T22:48:56.526Z,55.10
2018-07-05T22:51:42.932Z,55.10
2018-07-05T22:54:29.456Z,55.00
2018-07-05T22:57:15.868Z,55.20
2018-07-05T23:00:02.288Z,55.20
2018-07-05T23:02:48.675Z,55.30
2018-07-05T23:05:35.197Z,55.20
2018-07-05T23:08:21.749Z,55.30
2018-07-05T23:11:08.201Z,55.30
2018-07-05T23:13:54.603Z,54.80
2018-07-05T23:16:40.944Z,55.30
2018-07-05T23:19:27.541Z,55.30
2018-07-05T23:22:13.921Z,55.30
2018-07-05T23:25:00.430Z,54.80
2018-07-05T23:27:47.464Z,55.40
2018-07-05T23:30:34.064Z,55.20
2018-07-05T23:33:20.698Z,55.50
2018-07-05T23:36:07.111Z,55.20
2018-07-05T23:38:53.565Z,55.30
2018-07-05T23:41:40.126Z,55.40
2018-07-05T23:44:26.556Z,55.40
2018-07-05T23:47:12.976Z,55.40
2018-07-05T23:49:59.272Z,55.30
2018-07-05T23:52:45.708Z,55.30
2018-07-05T23:55:32.136Z,55.40
2018-07-05T23:58:18.667Z,55.60
